createdAt,value
2022-08-23T00:02:29.374Z,3.08
2022-08-23T00:05:08.145Z,2.28
2022-08-23T00:07:38.674Z,3.13
2022-08-23T00:10:08.653Z,2.30
2022-08-23T00:12:37.197Z,2.33
2022-08-23T00:15:06.338Z,2.50
2022-08-23T00:17:35.523Z,2.33
2022-08-23T00:20:05.217Z,2.47
2022-08-23T00:22:33.540Z,2.35
2022-08-23T00:25:01.602Z,2.50
2022-08-23T00:27:30.117Z,2.55
2022-08-23T00:29:59.269Z,2.80
2022-08-23T00:32:29.600Z,2.60
2022-08-23T00:34:58.385Z,2.47
2022-08-23T00:37:28.562Z,2.75
2022-08-23T00:39:56.728Z,2.50
2022-08-23T00:42:51.409Z,2.80
2022-08-23T00:45:55.905Z,2.35
2022-08-23T00:48:24.195Z,2.50
2022-08-23T00:50:58.450Z,2.60
2022-08-23T00:53:32.080Z,2.50
2022-08-23T00:56:03.464Z,2.47
2022-08-23T00:58:32.033Z,2.47
2022-08-23T01:01:01.907Z,2.60
2022-08-23T01:03:38.731Z,2.80
2022-08-23T01:06:12.383Z,2.83
2022-08-23T01:08:45.523Z,2.50
2022-08-23T01:11:20.109Z,2.60
2022-08-23T01:13:54.458Z,2.78
2022-08-23T01:16:33.577Z,2.60
2022-08-23T01:19:02.589Z,2.70
2022-08-23T01:21:36.627Z,3.10
2022-08-23T01:24:19.195Z,2.40
2022-08-23T01:26:59.759Z,2.45
2022-08-23T01:29:27.946Z,2.63
2022-08-23T01:31:56.520Z,2.70
2022-08-23T01:34:27.616Z,2.50
2022-08-23T01:36:56.225Z,2.40
2022-08-23T01:39:26.985Z,2.70
2022-08-23T01:41:55.359Z,2.75
2022-08-23T01:44:23.382Z,2.75
2022-08-23T01:46:58.017Z,2.53
2022-08-23T01:49:27.599Z,2.80
2022-08-23T01:51:56.784Z,2.72
2022-08-23T01:54:26.363Z,2.58
2022-08-23T01:56:54.409Z,2.60
2022-08-23T01:59:22.644Z,2.63
2022-08-23T02:01:54.809Z,2.72
2022-08-23T02:04:23.303Z,2.63
2022-08-23T02:06:51.406Z,2.53
2022-08-23T02:09:22.730Z,2.78
2022-08-23T02:11:58.084Z,3.13
2022-08-23T02:14:26.270Z,2.95
2022-08-23T02:17:04.556Z,2.75
2022-08-23T02:19:36.889Z,3.28
2022-08-23T02:22:07.642Z,2.92
2022-08-23T02:24:39.913Z,2.85
2022-08-23T02:27:10.225Z,2.80
2022-08-23T02:29:41.034Z,2.80
2022-08-23T02:32:14.130Z,2.83
2022-08-23T02:34:43.814Z,3.00
2022-08-23T02:37:13.712Z,2.88
2022-08-23T02:39:42.993Z,2.83
2022-08-23T02:42:13.543Z,3.28
2022-08-23T02:44:45.143Z,2.63
2022-08-23T02:47:13.514Z,2.92
2022-08-23T02:49:47.895Z,2.95
2022-08-23T02:52:16.583Z,3.00
2022-08-23T02:54:45.132Z,2.85
2022-08-23T02:57:14.506Z,2.83
2022-08-23T02:59:42.712Z,2.85
2022-08-23T03:02:11.285Z,2.70
2022-08-23T03:04:43.258Z,3.03
2022-08-23T03:07:11.931Z,2.83
2022-08-23T03:09:40.821Z,3.08
2022-08-23T03:12:10.750Z,3.17
2022-08-23T03:14:44.836Z,3.20
2022-08-23T03:17:14.392Z,3.15
2022-08-23T03:19:42.691Z,2.95
2022-08-23T03:22:10.920Z,3.15
2022-08-23T03:24:38.975Z,3.08
2022-08-23T03:27:07.521Z,3.15
2022-08-23T03:29:35.718Z,3.20
2022-08-23T03:32:07.375Z,3.00
2022-08-23T03:34:38.606Z,3.05
2022-08-23T03:37:08.858Z,2.90
2022-08-23T03:39:37.443Z,3.30
2022-08-23T03:42:06.101Z,3.50
2022-08-23T03:44:35.563Z,3.10
2022-08-23T03:47:06.569Z,3.13
2022-08-23T03:49:35.943Z,3.53
2022-08-23T03:52:04.586Z,3.20
2022-08-23T03:54:33.870Z,3.42
2022-08-23T03:57:05.848Z,3.50
2022-08-23T03:59:37.021Z,3.38
2022-08-23T04:02:10.124Z,2.95
2022-08-23T04:04:38.203Z,3.28
2022-08-23T04:07:24.926Z,3.15
2022-08-23T04:09:56.475Z,3.50
2022-08-23T04:12:27.010Z,3.10
2022-08-23T04:14:55.428Z,3.40
2022-08-23T04:17:26.160Z,3.30
2022-08-23T04:19:54.289Z,3.20
2022-08-23T04:22:22.485Z,3.65
2022-08-23T04:24:50.454Z,3.40
2022-08-23T04:27:18.796Z,2.97
2022-08-23T04:29:47.844Z,3.42
2022-08-23T04:32:26.547Z,3.40
2022-08-23T04:34:58.670Z,3.42
2022-08-23T04:37:28.054Z,3.38
2022-08-23T04:40:13.904Z,3.50
2022-08-23T04:42:43.926Z,3.40
2022-08-23T04:45:14.135Z,3.72
2022-08-23T04:47:45.962Z,3.40
2022-08-23T04:50:15.537Z,3.47
2022-08-23T04:53:08.879Z,3.63
2022-08-23T04:55:44.326Z,3.67
2022-08-23T04:58:12.532Z,4.10
2022-08-23T05:00:50.858Z,3.83
2022-08-23T05:03:22.371Z,3.65
2022-08-23T05:05:53.515Z,4.00
2022-08-23T05:08:25.306Z,3.67
2022-08-23T05:10:53.829Z,4.18
2022-08-23T05:13:22.210Z,4.13
2022-08-23T05:15:52.482Z,4.07
2022-08-23T05:18:22.015Z,3.47
2022-08-23T05:20:53.811Z,3.55
2022-08-23T05:23:23.532Z,4.05
2022-08-23T05:26:05.904Z,3.22
2022-08-23T05:28:44.447Z,3.35
2022-08-23T05:31:16.436Z,3.38
2022-08-23T05:33:48.739Z,3.60
2022-08-23T05:36:23.286Z,3.50
2022-08-23T05:38:53.219Z,3.72
2022-08-23T05:41:22.700Z,3.83
2022-08-23T05:44:01.455Z,3.83
2022-08-23T05:46:30.685Z,3.30
2022-08-23T05:49:18.516Z,3.58
2022-08-23T05:51:51.796Z,3.80
2022-08-23T05:54:21.494Z,3.63
2022-08-23T05:57:03.037Z,3.45
2022-08-23T05:59:31.642Z,3.30
2022-08-23T06:01:59.650Z,3.40
2022-08-23T06:04:27.665Z,3.75
2022-08-23T06:06:58.844Z,3.47
2022-08-23T06:09:27.437Z,3.17
2022-08-23T06:11:55.439Z,4.25
2022-08-23T06:14:23.682Z,4.30
2022-08-23T06:16:55.809Z,4.30
2022-08-23T06:19:27.047Z,4.32
2022-08-23T06:22:14.995Z,3.80
2022-08-23T06:24:43.776Z,3.55
2022-08-23T06:27:14.165Z,3.92
2022-08-23T06:29:43.530Z,3.75
2022-08-23T06:32:29.987Z,3.42
2022-08-23T06:35:38.389Z,3.58
2022-08-23T06:38:32.740Z,3.35
2022-08-23T06:41:30.109Z,3.22
2022-08-23T06:44:16.800Z,3.30
2022-08-23T06:47:08.694Z,2.88
2022-08-23T06:49:37.077Z,3.40
2022-08-23T06:52:05.516Z,3.40
2022-08-23T06:55:13.903Z,3.30
2022-08-23T06:58:12.546Z,3.65
2022-08-23T07:01:28.577Z,3.22
2022-08-23T07:04:12.301Z,2.80
2022-08-23T07:06:59.767Z,3.03
2022-08-23T07:09:27.918Z,3.05
2022-08-23T07:11:59.034Z,3.20
2022-08-23T07:14:28.271Z,3.50
2022-08-23T07:16:59.405Z,3.38
2022-08-23T07:19:30.618Z,3.17
2022-08-23T07:22:00.259Z,3.15
2022-08-23T07:24:33.373Z,2.90
2022-08-23T07:27:08.630Z,2.95
2022-08-23T07:29:43.026Z,2.63
2022-08-23T07:32:11.592Z,2.92
2022-08-23T07:34:39.946Z,2.83
2022-08-23T07:37:11.371Z,2.88
2022-08-23T07:39:45.000Z,2.85
2022-08-23T07:42:22.805Z,2.75
2022-08-23T07:44:53.615Z,3.00
2022-08-23T07:47:23.504Z,2.60
2022-08-23T07:49:52.416Z,2.95
2022-08-23T07:52:20.462Z,2.78
2022-08-23T07:54:49.624Z,3.13
2022-08-23T07:57:48.822Z,3.10
2022-08-23T08:00:42.113Z,3.17
2022-08-23T08:03:28.902Z,3.08
2022-08-23T08:06:12.541Z,3.08
2022-08-23T08:08:41.844Z,2.83
2022-08-23T08:11:12.230Z,2.72
2022-08-23T08:13:43.763Z,2.70
2022-08-23T08:16:20.563Z,2.70
2022-08-23T08:18:48.728Z,2.78
2022-08-23T08:21:42.823Z,2.92
2022-08-23T08:24:33.469Z,2.70
2022-08-23T08:27:09.268Z,2.60
2022-08-23T08:29:38.725Z,2.92
2022-08-23T08:32:08.129Z,2.72
2022-08-23T08:34:42.499Z,2.50
2022-08-23T08:37:12.101Z,2.67
2022-08-23T08:39:45.620Z,2.78
2022-08-23T08:42:31.561Z,2.53
2022-08-23T08:45:05.332Z,2.60
2022-08-23T08:47:41.726Z,3.17
2022-08-23T08:50:15.781Z,2.75
2022-08-23T08:52:47.885Z,2.70
2022-08-23T08:55:33.076Z,2.70
2022-08-23T08:58:03.598Z,2.65
2022-08-23T09:00:35.436Z,2.67
2022-08-23T09:03:10.467Z,2.63
2022-08-23T09:05:46.743Z,2.65
2022-08-23T09:08:36.920Z,2.78
2022-08-23T09:11:11.047Z,2.70
2022-08-23T09:14:00.702Z,3.15
2022-08-23T09:16:46.292Z,2.30
2022-08-23T09:19:14.777Z,2.60
2022-08-23T09:21:47.898Z,2.65
2022-08-23T09:24:16.303Z,2.90
2022-08-23T09:26:58.847Z,2.70
2022-08-23T09:29:29.693Z,2.72
2022-08-23T09:32:02.408Z,2.80
2022-08-23T09:34:44.207Z,3.03
2022-08-23T09:37:19.339Z,3.38
2022-08-23T09:39:50.552Z,2.90
2022-08-23T09:42:31.167Z,2.97
2022-08-23T09:45:01.026Z,2.95
2022-08-23T09:47:44.414Z,2.60
2022-08-23T09:50:24.089Z,2.65
2022-08-23T09:52:57.157Z,3.40
2022-08-23T09:55:32.753Z,3.13
2022-08-23T09:58:02.220Z,3.30
2022-08-23T10:00:35.044Z,3.08
2022-08-23T10:03:27.559Z,3.00
2022-08-23T10:06:03.100Z,3.00
2022-08-23T10:08:42.381Z,3.00
2022-08-23T10:11:19.537Z,3.15
2022-08-23T10:13:49.026Z,3.10
2022-08-23T10:16:29.279Z,2.97
2022-08-23T10:19:15.757Z,3.13
2022-08-23T10:21:54.070Z,3.30
2022-08-23T10:24:31.171Z,2.63
2022-08-23T10:27:38.385Z,3.10
2022-08-23T10:30:11.747Z,3.28
2022-08-23T10:32:50.674Z,3.08
2022-08-23T10:35:35.952Z,2.95
2022-08-23T10:38:23.822Z,4.07
2022-08-23T10:41:03.889Z,3.33
2022-08-23T10:43:39.929Z,2.88
2022-08-23T10:46:09.293Z,3.97
2022-08-23T10:48:51.327Z,2.78
2022-08-23T10:51:31.589Z,2.80
2022-08-23T10:54:06.290Z,2.67
2022-08-23T10:56:35.653Z,3.00
2022-08-23T10:59:10.104Z,3.53
2022-08-23T11:01:45.280Z,3.10
2022-08-23T11:04:23.056Z,2.90
2022-08-23T11:07:17.153Z,2.90
2022-08-23T11:10:09.901Z,2.78
2022-08-23T11:12:55.513Z,2.60
2022-08-23T11:15:44.597Z,3.00
2022-08-23T11:18:38.575Z,3.47
2022-08-23T11:21:33.574Z,3.00
2022-08-23T11:24:33.204Z,3.05
2022-08-23T11:27:07.763Z,3.22
2022-08-23T11:29:44.132Z,3.00
2022-08-23T11:32:49.630Z,2.80
2022-08-23T11:35:38.937Z,3.33
2022-08-23T11:38:13.143Z,3.00
2022-08-23T11:41:15.893Z,2.97
2022-08-23T11:43:47.744Z,2.97
2022-08-23T11:46:34.628Z,2.67
2022-08-23T11:49:40.934Z,3.10
2022-08-23T11:52:20.199Z,2.85
2022-08-23T11:55:05.609Z,3.10
2022-08-23T11:57:53.025Z,3.22
2022-08-23T12:00:28.782Z,3.47
2022-08-23T12:03:03.937Z,3.15
2022-08-23T12:06:08.800Z,3.55
2022-08-23T12:08:55.171Z,3.72
2022-08-23T12:11:26.510Z,3.25
2022-08-23T12:14:21.234Z,3.60
2022-08-23T12:16:50.951Z,3.25
2022-08-23T12:19:35.846Z,3.25
2022-08-23T12:22:11.602Z,2.90
2022-08-23T12:24:44.863Z,2.70
2022-08-23T12:27:27.199Z,3.15
2022-08-23T12:30:02.607Z,3.30
2022-08-23T12:32:38.259Z,3.03
2022-08-23T12:35:26.452Z,3.15
2022-08-23T12:38:01.488Z,3.22
2022-08-23T12:40:34.886Z,3.00
2022-08-23T12:43:10.103Z,3.10
2022-08-23T12:45:49.931Z,3.33
2022-08-23T12:48:20.460Z,3.42
2022-08-23T12:50:55.800Z,3.13
2022-08-23T12:53:29.361Z,3.22
2022-08-23T12:56:02.512Z,3.78
2022-08-23T12:58:33.834Z,3.40
2022-08-23T13:01:06.050Z,3.55
2022-08-23T13:03:38.775Z,2.80
2022-08-23T13:06:11.152Z,3.47
2022-08-23T13:08:42.804Z,3.33
2022-08-23T13:11:12.806Z,3.50
2022-08-23T13:13:42.973Z,3.50
2022-08-23T13:16:33.961Z,3.42
2022-08-23T13:19:17.701Z,2.80
2022-08-23T13:21:45.809Z,3.20
2022-08-23T13:24:37.947Z,3.47
2022-08-23T13:27:22.597Z,3.35
2022-08-23T13:29:53.112Z,3.40
2022-08-23T13:32:35.680Z,2.92
2022-08-23T13:35:27.472Z,3.80
2022-08-23T13:37:59.118Z,3.22
2022-08-23T13:40:30.909Z,3.45
2022-08-23T13:43:03.224Z,2.95
2022-08-23T13:45:33.573Z,3.55
2022-08-23T13:48:10.160Z,3.30
2022-08-23T13:50:39.908Z,3.30
2022-08-23T13:53:14.707Z,3.30
2022-08-23T13:55:46.428Z,3.72
2022-08-23T13:58:19.198Z,2.97
2022-08-23T14:00:55.337Z,3.60
2022-08-23T14:03:27.382Z,3.00
2022-08-23T14:05:55.836Z,3.13
2022-08-23T14:08:24.204Z,3.25
2022-08-23T14:10:52.823Z,3.17
2022-08-23T14:13:25.244Z,3.38
2022-08-23T14:15:56.416Z,3.20
2022-08-23T14:18:27.388Z,3.53
2022-08-23T14:20:56.362Z,3.38
2022-08-23T14:23:25.200Z,3.33
2022-08-23T14:25:56.023Z,3.90
2022-08-23T14:28:29.494Z,3.45
2022-08-23T14:30:58.083Z,3.35
2022-08-23T14:33:27.433Z,3.80
2022-08-23T14:35:57.186Z,3.53
2022-08-23T14:38:25.413Z,3.28
2022-08-23T14:40:58.823Z,3.35
2022-08-23T14:43:27.540Z,3.20
2022-08-23T14:45:55.685Z,3.20
2022-08-23T14:48:25.238Z,3.35
2022-08-23T14:50:55.969Z,3.22
2022-08-23T14:53:26.609Z,3.58
2022-08-23T14:56:18.694Z,3.17
2022-08-23T14:58:42.927Z,3.40
2022-08-23T15:01:12.231Z,2.97
2022-08-23T15:03:41.801Z,3.10
2022-08-23T15:06:12.576Z,3.45
2022-08-23T15:08:40.965Z,3.40
2022-08-23T15:14:00.335Z,3.35
2022-08-23T15:16:29.193Z,3.42
2022-08-23T15:18:57.743Z,3.45
2022-08-23T15:21:27.125Z,3.30
2022-08-23T15:23:55.485Z,3.20
2022-08-23T15:26:26.116Z,3.25
2022-08-23T15:28:54.459Z,3.30
2022-08-23T15:31:22.806Z,3.08
2022-08-23T15:33:50.822Z,3.05
2022-08-23T15:36:19.388Z,3.10
2022-08-23T15:38:49.711Z,3.33
2022-08-23T15:41:19.762Z,3.20
2022-08-23T15:43:48.314Z,3.22
2022-08-23T15:46:20.135Z,3.58
2022-08-23T15:48:53.785Z,3.28
2022-08-23T15:51:21.814Z,3.40
2022-08-23T15:53:51.946Z,3.22
2022-08-23T15:56:23.121Z,3.45
2022-08-23T15:58:53.601Z,3.60
2022-08-23T16:01:24.668Z,3.45
2022-08-23T16:03:53.209Z,3.75
2022-08-23T16:06:22.039Z,3.65
2022-08-23T16:08:53.914Z,3.22
2022-08-23T16:11:22.906Z,3.35
2022-08-23T16:13:55.132Z,3.80
2022-08-23T16:16:26.140Z,3.53
2022-08-23T16:18:55.686Z,3.38
2022-08-23T16:21:26.946Z,3.55
2022-08-23T16:23:57.339Z,3.60
2022-08-23T16:26:34.671Z,3.42
2022-08-23T16:29:04.481Z,3.28
2022-08-23T16:31:38.653Z,3.67
2022-08-23T16:34:09.520Z,4.35
2022-08-23T16:36:38.012Z,3.30
2022-08-23T16:39:07.988Z,3.40
2022-08-23T16:41:36.073Z,3.38
2022-08-23T16:44:04.732Z,3.33
2022-08-23T16:46:33.276Z,3.75
2022-08-23T16:49:01.243Z,3.50
2022-08-23T16:51:29.368Z,3.08
2022-08-23T16:54:02.665Z,3.25
2022-08-23T16:56:34.006Z,3.17
2022-08-23T16:59:03.107Z,3.33
2022-08-23T17:01:33.093Z,3.35
2022-08-23T17:04:01.215Z,3.40
2022-08-23T17:06:29.220Z,3.40
2022-08-23T17:08:57.153Z,3.45
2022-08-23T17:11:27.805Z,3.55
2022-08-23T17:14:05.014Z,3.58
2022-08-23T17:16:34.014Z,3.47
2022-08-23T17:19:02.338Z,3.72
2022-08-23T17:21:30.621Z,3.40
2022-08-23T17:23:58.706Z,3.58
2022-08-23T17:26:26.748Z,3.30
2022-08-23T17:28:56.402Z,3.90
2022-08-23T17:31:27.002Z,3.95
2022-08-23T17:33:55.383Z,3.20
2022-08-23T17:36:29.653Z,3.63
2022-08-23T17:38:58.109Z,3.15
2022-08-23T17:41:28.307Z,3.25
2022-08-23T17:43:56.776Z,3.50
2022-08-23T17:46:26.311Z,2.95
2022-08-23T17:48:54.546Z,3.40
2022-08-23T17:51:22.665Z,3.63
2022-08-23T17:53:50.649Z,3.72
2022-08-23T17:56:18.671Z,3.50
2022-08-23T17:58:47.077Z,3.58
2022-08-23T18:01:15.325Z,3.88
2022-08-23T18:03:44.956Z,3.72
2022-08-23T18:06:17.212Z,3.60
2022-08-23T18:08:46.088Z,3.88
2022-08-23T18:11:14.622Z,3.80
2022-08-23T18:13:42.908Z,3.63
2022-08-23T18:16:10.948Z,3.33
2022-08-23T18:18:40.432Z,4.47
2022-08-23T18:21:12.565Z,4.10
2022-08-23T18:23:40.928Z,3.58
2022-08-23T18:26:31.522Z,3.25
2022-08-23T18:28:58.952Z,3.50
2022-08-23T18:31:27.463Z,3.85
2022-08-23T18:34:00.170Z,3.67
2022-08-23T18:36:30.775Z,3.90
2022-08-23T18:38:58.793Z,4.00
2022-08-23T18:41:26.780Z,3.95
2022-08-23T18:43:54.827Z,3.90
2022-08-23T18:46:23.187Z,3.38
2022-08-23T18:48:53.354Z,3.40
2022-08-23T18:51:23.123Z,3.53
2022-08-23T18:53:52.916Z,3.50
2022-08-23T18:56:20.867Z,3.72
2022-08-23T18:58:49.027Z,3.47
2022-08-23T19:01:24.616Z,3.78
2022-08-23T19:03:53.429Z,3.58
2022-08-23T19:06:21.479Z,3.63
2022-08-23T19:08:49.468Z,4.05
2022-08-23T19:11:20.003Z,3.75
2022-08-23T19:13:50.970Z,4.10
2022-08-23T19:16:20.925Z,3.58
2022-08-23T19:18:51.023Z,3.35
2022-08-23T19:21:21.567Z,3.60
2022-08-23T19:23:51.761Z,3.60
2022-08-23T19:26:23.765Z,3.88
2022-08-23T19:28:52.090Z,3.65
2022-08-23T19:31:20.333Z,3.65
2022-08-23T19:33:48.937Z,3.75
2022-08-23T19:36:42.775Z,3.42
2022-08-23T19:39:05.376Z,3.70
2022-08-23T19:41:34.688Z,3.78
2022-08-23T19:44:02.695Z,3.67
2022-08-23T19:46:31.217Z,4.15
2022-08-23T19:48:59.297Z,3.90
2022-08-23T19:51:28.071Z,4.07
2022-08-23T19:54:10.915Z,3.83
2022-08-23T19:56:43.223Z,3.92
2022-08-23T19:59:15.053Z,4.13
2022-08-23T20:01:43.365Z,4.45
2022-08-23T20:04:11.908Z,6.47
2022-08-23T20:06:40.540Z,5.95
2022-08-23T20:09:09.322Z,5.53
2022-08-23T20:11:38.340Z,5.50
2022-08-23T20:14:07.920Z,5.60
2022-08-23T20:16:38.216Z,4.85
2022-08-23T20:19:09.657Z,5.15
2022-08-23T20:21:38.610Z,5.07
2022-08-23T20:24:07.145Z,5.30
2022-08-23T20:26:38.978Z,5.20
2022-08-23T20:29:10.169Z,4.63
2022-08-23T20:31:40.827Z,5.25
2022-08-23T20:34:09.785Z,4.80
2022-08-23T20:36:38.011Z,4.10
2022-08-23T20:39:06.622Z,3.83
2022-08-23T20:41:37.099Z,3.30
2022-08-23T20:44:08.946Z,3.72
2022-08-23T20:46:37.474Z,3.75
2022-08-23T20:49:06.074Z,4.40
2022-08-23T20:51:36.512Z,4.22
2022-08-23T20:54:05.445Z,5.68
2022-08-23T20:56:33.566Z,5.22
2022-08-23T20:59:01.931Z,4.90
2022-08-23T21:01:31.467Z,4.80
2022-08-23T21:04:00.050Z,4.30
2022-08-23T21:06:30.163Z,4.57
2022-08-23T21:09:00.327Z,4.78
2022-08-23T21:11:29.829Z,4.70
2022-08-23T21:13:58.784Z,4.68
2022-08-23T21:16:27.624Z,5.85
2022-08-23T21:18:57.154Z,5.57
2022-08-23T21:21:25.787Z,5.03
2022-08-23T21:23:54.733Z,5.50
2022-08-23T21:26:23.428Z,5.60
2022-08-23T21:28:51.949Z,5.57
2022-08-23T21:31:24.116Z,5.85
2022-08-23T21:33:53.215Z,5.63
2022-08-23T21:36:24.751Z,5.60
2022-08-23T21:38:52.742Z,5.50
2022-08-23T21:41:30.267Z,5.35
2022-08-23T21:43:58.257Z,5.40
2022-08-23T21:46:26.429Z,6.10
2022-08-23T21:48:54.581Z,5.93
2022-08-23T21:51:23.971Z,5.35
2022-08-23T21:53:51.956Z,6.22
2022-08-23T21:56:20.470Z,5.60
2022-08-23T21:58:50.603Z,5.50
2022-08-23T22:01:19.530Z,6.25
2022-08-23T22:03:47.943Z,5.78
2022-08-23T22:06:18.803Z,5.60
2022-08-23T22:08:48.133Z,5.32
2022-08-23T22:11:16.618Z,5.55
2022-08-23T22:13:44.700Z,5.28
2022-08-23T22:16:13.351Z,5.00
2022-08-23T22:18:42.709Z,4.95
2022-08-23T22:21:11.627Z,5.57
2022-08-23T22:23:43.177Z,5.20
2022-08-23T22:26:14.103Z,5.45
2022-08-23T22:28:44.455Z,4.75
2022-08-23T22:31:14.367Z,5.03
2022-08-23T22:33:43.849Z,4.65
2022-08-23T22:36:14.974Z,4.95
2022-08-23T22:38:43.669Z,4.60
2022-08-23T22:41:16.687Z,4.82
2022-08-23T22:43:44.849Z,5.15
2022-08-23T22:46:12.902Z,4.57
2022-08-23T22:48:41.319Z,5.10
2022-08-23T22:51:11.324Z,4.68
2022-08-23T22:53:41.706Z,4.57
2022-08-23T22:56:15.354Z,4.25
2022-08-23T22:58:43.409Z,4.35
2022-08-23T23:01:18.198Z,4.53
2022-08-23T23:03:46.868Z,4.60
2022-08-23T23:06:17.643Z,4.55
2022-08-23T23:08:45.627Z,4.40
2022-08-23T23:11:17.181Z,4.68
2022-08-23T23:13:45.520Z,4.55
2022-08-23T23:16:16.329Z,4.30
2022-08-23T23:19:05.793Z,3.80
2022-08-23T23:21:34.964Z,4.20
2022-08-23T23:24:03.781Z,3.85
2022-08-23T23:26:33.074Z,4.13
2022-08-23T23:29:01.158Z,3.80
2022-08-23T23:31:29.690Z,3.65
2022-08-23T23:33:58.436Z,4.00
2022-08-23T23:36:26.657Z,4.07
2022-08-23T23:38:54.729Z,4.30
2022-08-23T23:41:22.714Z,3.60
2022-08-23T23:43:52.176Z,4.07
2022-08-23T23:46:21.156Z,3.65
2022-08-23T23:48:50.149Z,3.72
2022-08-23T23:51:21.272Z,3.80
2022-08-23T23:53:49.408Z,3.67
2022-08-23T23:56:18.630Z,3.88
2022-08-23T23:58:47.652Z,3.83
